sensor_id;sensor_type;location;lat;lon;timestamp;temperature;humidity
23452;DHT22;11898;51.130;6.780;2023-07-20T00:01:17;21.10;99.90
23452;DHT22;11898;51.130;6.780;2023-07-20T00:03:46;21.10;99.90
23452;DHT22;11898;51.130;6.780;2023-07-20T00:06:16;21.10;99.90
23452;DHT22;11898;51.130;6.780;2023-07-20T00:08:45;21.10;99.90
23452;DHT22;11898;51.130;6.780;2023-07-20T00:11:14;21.10;99.90
23452;DHT22;11898;51.130;6.780;2023-07-20T00:13:43;21.10;99.90
23452;DHT22;11898;51.130;6.780;2023-07-20T00:16:12;21.10;99.90
23452;DHT22;11898;51.130;6.780;2023-07-20T00:18:41;21.10;99.90
23452;DHT22;11898;51.130;6.780;2023-07-20T00:21:09;21.10;99.90
23452;DHT22;11898;51.130;6.780;2023-07-20T00:23:38;21.10;99.90
23452;DHT22;11898;51.130;6.780;2023-07-20T00:26:07;21.10;99.90
23452;DHT22;11898;51.130;6.780;2023-07-20T00:28:35;21.10;99.90
23452;DHT22;11898;51.130;6.780;2023-07-20T00:31:04;21.10;99.90
23452;DHT22;11898;51.130;6.780;2023-07-20T00:33:33;21.10;99.90
23452;DHT22;11898;51.130;6.780;2023-07-20T00:36:01;21.10;99.90
23452;DHT22;11898;51.130;6.780;2023-07-20T00:38:30;21.00;99.90
23452;DHT22;11898;51.130;6.780;2023-07-20T00:40:59;21.00;99.90
23452;DHT22;11898;51.130;6.780;2023-07-20T00:43:28;21.00;99.90
23452;DHT22;11898;51.130;6.780;2023-07-20T00:45:56;21.00;99.90
23452;DHT22;11898;51.130;6.780;2023-07-20T00:48:25;20.90;99.90
23452;DHT22;11898;51.130;6.780;2023-07-20T00:50:54;20.90;99.90
23452;DHT22;11898;51.130;6.780;2023-07-20T00:53:23;20.90;99.90
23452;DHT22;11898;51.130;6.780;2023-07-20T00:55:51;21.20;99.90
23452;DHT22;11898;51.130;6.780;2023-07-20T00:58:20;20.90;99.90
23452;DHT22;11898;51.130;6.780;2023-07-20T01:00:49;20.90;99.90
23452;DHT22;11898;51.130;6.780;2023-07-20T01:03:18;20.90;99.90
23452;DHT22;11898;51.130;6.780;2023-07-20T01:05:54;20.90;99.90
23452;DHT22;11898;51.130;6.780;2023-07-20T01:08:33;20.80;99.90
23452;DHT22;11898;51.130;6.780;2023-07-20T01:11:24;20.90;99.90
23452;DHT22;11898;51.130;6.780;2023-07-20T01:13:49;20.80;99.90
23452;DHT22;11898;51.130;6.780;2023-07-20T01:16:18;20.80;99.90
23452;DHT22;11898;51.130;6.780;2023-07-20T01:18:47;20.80;99.90
23452;DHT22;11898;51.130;6.780;2023-07-20T01:21:23;20.80;99.90
23452;DHT22;11898;51.130;6.780;2023-07-20T01:24:19;20.80;99.90
23452;DHT22;11898;51.130;6.780;2023-07-20T01:32:17;20.80;99.90
23452;DHT22;11898;51.130;6.780;2023-07-20T01:34:48;20.70;99.90
23452;DHT22;11898;51.130;6.780;2023-07-20T01:37:18;20.50;99.90
23452;DHT22;11898;51.130;6.780;2023-07-20T01:39:47;20.60;99.90
23452;DHT22;11898;51.130;6.780;2023-07-20T01:42:16;20.60;99.90
23452;DHT22;11898;51.130;6.780;2023-07-20T01:44:45;20.60;99.90
23452;DHT22;11898;51.130;6.780;2023-07-20T01:47:14;20.60;99.90
23452;DHT22;11898;51.130;6.780;2023-07-20T01:49:42;20.70;99.90
23452;DHT22;11898;51.130;6.780;2023-07-20T01:52:11;20.70;99.90
23452;DHT22;11898;51.130;6.780;2023-07-20T01:54:40;20.70;99.90
23452;DHT22;11898;51.130;6.780;2023-07-20T01:57:09;20.70;99.90
23452;DHT22;11898;51.130;6.780;2023-07-20T01:59:37;20.70;99.90
23452;DHT22;11898;51.130;6.780;2023-07-20T02:02:06;20.70;99.90
23452;DHT22;11898;51.130;6.780;2023-07-20T02:04:35;20.70;99.90
23452;DHT22;11898;51.130;6.780;2023-07-20T02:07:04;20.60;99.90
23452;DHT22;11898;51.130;6.780;2023-07-20T02:09:32;20.60;99.90
23452;DHT22;11898;51.130;6.780;2023-07-20T02:12:01;20.60;99.90
23452;DHT22;11898;51.130;6.780;2023-07-20T02:14:30;20.50;99.90
23452;DHT22;11898;51.130;6.780;2023-07-20T02:16:58;20.50;99.90
23452;DHT22;11898;51.130;6.780;2023-07-20T02:19:30;20.50;99.90
23452;DHT22;11898;51.130;6.780;2023-07-20T02:22:02;20.40;99.90
23452;DHT22;11898;51.130;6.780;2023-07-20T02:24:33;20.40;99.90
23452;DHT22;11898;51.130;6.780;2023-07-20T02:27:03;20.40;99.90
23452;DHT22;11898;51.130;6.780;2023-07-20T02:29:32;20.40;99.90
23452;DHT22;11898;51.130;6.780;2023-07-20T02:32:02;20.40;99.90
23452;DHT22;11898;51.130;6.780;2023-07-20T02:34:30;20.30;99.90
23452;DHT22;11898;51.130;6.780;2023-07-20T02:36:59;20.30;99.90
23452;DHT22;11898;51.130;6.780;2023-07-20T02:39:28;20.30;99.90
23452;DHT22;11898;51.130;6.780;2023-07-20T02:41:57;20.20;99.90
23452;DHT22;11898;51.130;6.780;2023-07-20T02:44:26;20.20;99.90
23452;DHT22;11898;51.130;6.780;2023-07-20T02:46:55;20.20;99.90
23452;DHT22;11898;51.130;6.780;2023-07-20T02:49:43;20.10;99.90
23452;DHT22;11898;51.130;6.780;2023-07-20T02:52:12;20.20;99.90
23452;DHT22;11898;51.130;6.780;2023-07-20T02:54:41;20.10;99.90
23452;DHT22;11898;51.130;6.780;2023-07-20T02:57:09;20.10;99.90
23452;DHT22;11898;51.130;6.780;2023-07-20T02:59:38;20.10;99.90
23452;DHT22;11898;51.130;6.780;2023-07-20T03:02:06;20.10;99.90
23452;DHT22;11898;51.130;6.780;2023-07-20T03:04:37;20.00;99.90
23452;DHT22;11898;51.130;6.780;2023-07-20T03:07:06;20.00;99.90
23452;DHT22;11898;51.130;6.780;2023-07-20T03:09:35;20.00;99.90
23452;DHT22;11898;51.130;6.780;2023-07-20T03:12:04;19.90;99.90
23452;DHT22;11898;51.130;6.780;2023-07-20T03:14:33;20.00;99.90
23452;DHT22;11898;51.130;6.780;2023-07-20T03:17:01;19.90;99.90
23452;DHT22;11898;51.130;6.780;2023-07-20T03:19:30;19.90;99.90
23452;DHT22;11898;51.130;6.780;2023-07-20T03:21:59;19.90;99.90
23452;DHT22;11898;51.130;6.780;2023-07-20T03:24:27;19.90;99.90
23452;DHT22;11898;51.130;6.780;2023-07-20T03:26:56;19.90;99.90
23452;DHT22;11898;51.130;6.780;2023-07-20T03:29:25;19.90;99.90
23452;DHT22;11898;51.130;6.780;2023-07-20T03:31:53;19.90;99.90
23452;DHT22;11898;51.130;6.780;2023-07-20T03:34:22;19.80;99.90
23452;DHT22;11898;51.130;6.780;2023-07-20T03:36:51;19.80;99.90
23452;DHT22;11898;51.130;6.780;2023-07-20T03:39:19;19.80;99.90
23452;DHT22;11898;51.130;6.780;2023-07-20T03:41:48;19.80;99.90
23452;DHT22;11898;51.130;6.780;2023-07-20T03:44:17;19.80;99.90
23452;DHT22;11898;51.130;6.780;2023-07-20T03:46:45;19.70;99.90
23452;DHT22;11898;51.130;6.780;2023-07-20T03:49:14;19.70;99.90
23452;DHT22;11898;51.130;6.780;2023-07-20T03:51:43;19.70;99.90
23452;DHT22;11898;51.130;6.780;2023-07-20T03:54:12;19.70;99.90
23452;DHT22;11898;51.130;6.780;2023-07-20T03:56:40;19.70;99.90
23452;DHT22;11898;51.130;6.780;2023-07-20T03:59:09;19.60;99.90
23452;DHT22;11898;51.130;6.780;2023-07-20T04:01:38;19.60;99.90
23452;DHT22;11898;51.130;6.780;2023-07-20T04:04:08;19.70;99.90
23452;DHT22;11898;51.130;6.780;2023-07-20T04:06:38;19.60;99.90
23452;DHT22;11898;51.130;6.780;2023-07-20T04:09:06;19.60;99.90
23452;DHT22;11898;51.130;6.780;2023-07-20T04:11:35;19.70;99.90
23452;DHT22;11898;51.130;6.780;2023-07-20T04:14:04;19.60;99.90
23452;DHT22;11898;51.130;6.780;2023-07-20T04:16:32;19.60;99.90
23452;DHT22;11898;51.130;6.780;2023-07-20T04:19:01;19.60;99.90
23452;DHT22;11898;51.130;6.780;2023-07-20T04:21:30;19.70;99.90
23452;DHT22;11898;51.130;6.780;2023-07-20T04:24:00;19.70;99.90
23452;DHT22;11898;51.130;6.780;2023-07-20T04:26:29;19.70;99.90
23452;DHT22;11898;51.130;6.780;2023-07-20T04:28:58;19.70;99.90
23452;DHT22;11898;51.130;6.780;2023-07-20T04:31:27;19.70;99.90
23452;DHT22;11898;51.130;6.780;2023-07-20T04:33:56;19.70;99.90
23452;DHT22;11898;51.130;6.780;2023-07-20T04:36:24;19.70;99.90
23452;DHT22;11898;51.130;6.780;2023-07-20T04:39:03;19.80;99.90
23452;DHT22;11898;51.130;6.780;2023-07-20T04:41:34;19.70;99.90
23452;DHT22;11898;51.130;6.780;2023-07-20T04:44:06;19.80;99.90
23452;DHT22;11898;51.130;6.780;2023-07-20T04:46:39;19.80;99.90
23452;DHT22;11898;51.130;6.780;2023-07-20T04:49:11;19.80;99.90
23452;DHT22;11898;51.130;6.780;2023-07-20T04:51:45;19.80;99.90
23452;DHT22;11898;51.130;6.780;2023-07-20T04:54:22;19.80;99.90
23452;DHT22;11898;51.130;6.780;2023-07-20T04:56:53;19.80;99.90
23452;DHT22;11898;51.130;6.780;2023-07-20T04:59:22;19.80;99.90
23452;DHT22;11898;51.130;6.780;2023-07-20T05:01:54;19.80;99.90
23452;DHT22;11898;51.130;6.780;2023-07-20T05:04:26;19.80;99.90
23452;DHT22;11898;51.130;6.780;2023-07-20T05:07:04;19.80;99.90
23452;DHT22;11898;51.130;6.780;2023-07-20T05:09:41;19.80;99.90
23452;DHT22;11898;51.130;6.780;2023-07-20T05:12:16;19.70;99.90
23452;DHT22;11898;51.130;6.780;2023-07-20T05:14:53;19.80;99.90
23452;DHT22;11898;51.130;6.780;2023-07-20T05:17:30;19.80;99.90
23452;DHT22;11898;51.130;6.780;2023-07-20T05:19:59;19.80;99.90
23452;DHT22;11898;51.130;6.780;2023-07-20T05:22:35;19.80;99.90
23452;DHT22;11898;51.130;6.780;2023-07-20T05:25:13;19.70;99.90
23452;DHT22;11898;51.130;6.780;2023-07-20T05:27:46;19.80;99.90
23452;DHT22;11898;51.130;6.780;2023-07-20T05:30:37;19.80;99.90
23452;DHT22;11898;51.130;6.780;2023-07-20T05:33:19;19.90;99.90
23452;DHT22;11898;51.130;6.780;2023-07-20T05:35:53;19.90;99.90
23452;DHT22;11898;51.130;6.780;2023-07-20T05:38:27;19.80;99.90
23452;DHT22;11898;51.130;6.780;2023-07-20T05:44:41;19.90;99.90
23452;DHT22;11898;51.130;6.780;2023-07-20T05:47:04;19.90;99.90
23452;DHT22;11898;51.130;6.780;2023-07-20T05:49:58;20.00;99.90
23452;DHT22;11898;51.130;6.780;2023-07-20T05:52:47;20.00;99.90
23452;DHT22;11898;51.130;6.780;2023-07-20T05:56:20;20.10;99.90
23452;DHT22;11898;51.130;6.780;2023-07-20T05:58:49;20.10;99.90
23452;DHT22;11898;51.130;6.780;2023-07-20T06:01:18;20.10;99.90
23452;DHT22;11898;51.130;6.780;2023-07-20T06:03:46;20.20;99.90
23452;DHT22;11898;51.130;6.780;2023-07-20T06:06:16;20.20;99.90
23452;DHT22;11898;51.130;6.780;2023-07-20T06:08:46;20.20;99.90
23452;DHT22;11898;51.130;6.780;2023-07-20T06:11:15;20.20;99.90
23452;DHT22;11898;51.130;6.780;2023-07-20T06:13:43;20.30;99.90
23452;DHT22;11898;51.130;6.780;2023-07-20T06:16:32;20.30;99.90
23452;DHT22;11898;51.130;6.780;2023-07-20T06:19:00;20.40;99.90
23452;DHT22;11898;51.130;6.780;2023-07-20T06:21:30;20.40;99.90
23452;DHT22;11898;51.130;6.780;2023-07-20T06:23:59;20.50;99.90
23452;DHT22;11898;51.130;6.780;2023-07-20T06:26:28;20.60;99.90
23452;DHT22;11898;51.130;6.780;2023-07-20T06:28:57;20.60;99.90
23452;DHT22;11898;51.130;6.780;2023-07-20T06:31:26;20.60;99.90
23452;DHT22;11898;51.130;6.780;2023-07-20T06:33:55;20.70;99.90
23452;DHT22;11898;51.130;6.780;2023-07-20T06:36:23;20.70;99.90
23452;DHT22;11898;51.130;6.780;2023-07-20T06:38:54;20.80;99.90
23452;DHT22;11898;51.130;6.780;2023-07-20T06:41:26;20.90;99.90
23452;DHT22;11898;51.130;6.780;2023-07-20T06:43:56;21.00;99.90
23452;DHT22;11898;51.130;6.780;2023-07-20T06:46:26;21.00;99.90
23452;DHT22;11898;51.130;6.780;2023-07-20T06:48:55;21.10;99.90
23452;DHT22;11898;51.130;6.780;2023-07-20T06:51:26;21.30;99.90
23452;DHT22;11898;51.130;6.780;2023-07-20T06:53:55;21.60;99.90
23452;DHT22;11898;51.130;6.780;2023-07-20T06:56:24;21.90;99.90
23452;DHT22;11898;51.130;6.780;2023-07-20T06:58:54;22.10;99.90
23452;DHT22;11898;51.130;6.780;2023-07-20T07:01:23;22.20;99.90
23452;DHT22;11898;51.130;6.780;2023-07-20T07:03:52;22.40;99.90
23452;DHT22;11898;51.130;6.780;2023-07-20T07:06:22;22.60;99.90
23452;DHT22;11898;51.130;6.780;2023-07-20T07:08:53;22.90;99.90
23452;DHT22;11898;51.130;6.780;2023-07-20T07:11:22;23.00;99.90
23452;DHT22;11898;51.130;6.780;2023-07-20T07:13:52;23.10;99.90
23452;DHT22;11898;51.130;6.780;2023-07-20T07:16:23;23.20;99.90
23452;DHT22;11898;51.130;6.780;2023-07-20T07:18:52;23.30;99.90
23452;DHT22;11898;51.130;6.780;2023-07-20T07:21:23;23.30;99.90
23452;DHT22;11898;51.130;6.780;2023-07-20T07:23:53;23.30;99.90
23452;DHT22;11898;51.130;6.780;2023-07-20T07:26:23;23.50;99.90
23452;DHT22;11898;51.130;6.780;2023-07-20T07:28:52;23.60;99.90
23452;DHT22;11898;51.130;6.780;2023-07-20T07:31:21;23.60;99.90
23452;DHT22;11898;51.130;6.780;2023-07-20T07:33:52;23.50;99.90
23452;DHT22;11898;51.130;6.780;2023-07-20T07:36:21;23.40;99.90
23452;DHT22;11898;51.130;6.780;2023-07-20T07:38:52;23.30;99.90
23452;DHT22;11898;51.130;6.780;2023-07-20T07:41:22;23.20;99.90
23452;DHT22;11898;51.130;6.780;2023-07-20T07:43:51;23.00;99.90
23452;DHT22;11898;51.130;6.780;2023-07-20T07:46:20;23.00;99.90
23452;DHT22;11898;51.130;6.780;2023-07-20T07:48:50;23.20;99.90
23452;DHT22;11898;51.130;6.780;2023-07-20T07:51:19;23.40;99.90
23452;DHT22;11898;51.130;6.780;2023-07-20T07:53:50;23.70;99.90
23452;DHT22;11898;51.130;6.780;2023-07-20T07:56:19;24.10;99.90
23452;DHT22;11898;51.130;6.780;2023-07-20T07:58:50;24.30;99.90
23452;DHT22;11898;51.130;6.780;2023-07-20T08:01:22;24.50;99.90
23452;DHT22;11898;51.130;6.780;2023-07-20T08:03:50;24.40;99.90
23452;DHT22;11898;51.130;6.780;2023-07-20T08:06:21;24.40;99.90
23452;DHT22;11898;51.130;6.780;2023-07-20T08:08:52;24.20;99.90
23452;DHT22;11898;51.130;6.780;2023-07-20T08:11:21;24.20;99.90
23452;DHT22;11898;51.130;6.780;2023-07-20T08:13:49;24.30;99.90
23452;DHT22;11898;51.130;6.780;2023-07-20T08:16:18;24.40;99.90
23452;DHT22;11898;51.130;6.780;2023-07-20T08:18:47;24.60;99.90
23452;DHT22;11898;51.130;6.780;2023-07-20T08:21:16;25.10;99.90
23452;DHT22;11898;51.130;6.780;2023-07-20T08:23:45;25.00;99.90
23452;DHT22;11898;51.130;6.780;2023-07-20T08:26:14;25.30;99.90
23452;DHT22;11898;51.130;6.780;2023-07-20T08:28:44;25.50;99.90
23452;DHT22;11898;51.130;6.780;2023-07-20T08:31:15;25.70;99.90
23452;DHT22;11898;51.130;6.780;2023-07-20T08:33:44;25.80;99.90
23452;DHT22;11898;51.130;6.780;2023-07-20T08:36:12;26.00;99.90
23452;DHT22;11898;51.130;6.780;2023-07-20T08:38:42;26.20;99.90
23452;DHT22;11898;51.130;6.780;2023-07-20T08:41:11;26.40;99.90
23452;DHT22;11898;51.130;6.780;2023-07-20T08:43:43;26.70;99.90
23452;DHT22;11898;51.130;6.780;2023-07-20T08:46:12;26.70;99.90
23452;DHT22;11898;51.130;6.780;2023-07-20T08:48:43;26.60;99.90
23452;DHT22;11898;51.130;6.780;2023-07-20T08:51:13;26.60;99.90
23452;DHT22;11898;51.130;6.780;2023-07-20T08:53:42;26.50;99.90
23452;DHT22;11898;51.130;6.780;2023-07-20T08:56:12;26.20;99.90
23452;DHT22;11898;51.130;6.780;2023-07-20T08:58:45;25.80;99.90
23452;DHT22;11898;51.130;6.780;2023-07-20T09:01:15;25.70;99.90
23452;DHT22;11898;51.130;6.780;2023-07-20T09:03:47;25.40;99.90
23452;DHT22;11898;51.130;6.780;2023-07-20T09:06:16;25.30;99.90
23452;DHT22;11898;51.130;6.780;2023-07-20T09:08:45;25.30;99.90
23452;DHT22;11898;51.130;6.780;2023-07-20T09:11:13;25.40;99.90
23452;DHT22;11898;51.130;6.780;2023-07-20T09:13:42;25.50;99.90
23452;DHT22;11898;51.130;6.780;2023-07-20T09:16:14;25.90;99.90
23452;DHT22;11898;51.130;6.780;2023-07-20T09:18:43;26.10;99.90
23452;DHT22;11898;51.130;6.780;2023-07-20T09:21:11;26.30;99.90
23452;DHT22;11898;51.130;6.780;2023-07-20T09:23:40;26.60;99.90
23452;DHT22;11898;51.130;6.780;2023-07-20T09:26:13;26.80;99.90
23452;DHT22;11898;51.130;6.780;2023-07-20T09:28:54;26.90;99.90
23452;DHT22;11898;51.130;6.780;2023-07-20T09:31:22;27.10;99.90
23452;DHT22;11898;51.130;6.780;2023-07-20T09:33:52;27.20;99.90
23452;DHT22;11898;51.130;6.780;2023-07-20T09:36:23;27.50;99.90
23452;DHT22;11898;51.130;6.780;2023-07-20T09:38:53;27.70;99.90
23452;DHT22;11898;51.130;6.780;2023-07-20T09:41:24;27.90;99.90
23452;DHT22;11898;51.130;6.780;2023-07-20T09:43:56;28.10;99.90
23452;DHT22;11898;51.130;6.780;2023-07-20T09:46:24;28.30;99.90
23452;DHT22;11898;51.130;6.780;2023-07-20T09:48:55;28.20;99.90
23452;DHT22;11898;51.130;6.780;2023-07-20T09:51:25;28.20;99.90
23452;DHT22;11898;51.130;6.780;2023-07-20T09:53:55;28.20;99.90
23452;DHT22;11898;51.130;6.780;2023-07-20T09:56:25;28.20;99.90
23452;DHT22;11898;51.130;6.780;2023-07-20T09:58:55;28.10;99.90
23452;DHT22;11898;51.130;6.780;2023-07-20T10:01:24;28.00;99.90
23452;DHT22;11898;51.130;6.780;2023-07-20T10:03:57;27.80;99.90
23452;DHT22;11898;51.130;6.780;2023-07-20T10:06:30;27.70;99.90
23452;DHT22;11898;51.130;6.780;2023-07-20T10:09:02;27.60;99.90
23452;DHT22;11898;51.130;6.780;2023-07-20T10:11:35;27.40;99.90
23452;DHT22;11898;51.130;6.780;2023-07-20T10:14:11;27.30;99.90
23452;DHT22;11898;51.130;6.780;2023-07-20T10:16:43;27.10;99.90
23452;DHT22;11898;51.130;6.780;2023-07-20T10:19:31;27.00;99.90
23452;DHT22;11898;51.130;6.780;2023-07-20T10:22:03;27.00;99.90
23452;DHT22;11898;51.130;6.780;2023-07-20T10:24:32;26.90;99.90
23452;DHT22;11898;51.130;6.780;2023-07-20T10:27:01;26.90;99.90
23452;DHT22;11898;51.130;6.780;2023-07-20T10:29:30;26.90;99.90
23452;DHT22;11898;51.130;6.780;2023-07-20T10:32:01;26.90;99.90
23452;DHT22;11898;51.130;6.780;2023-07-20T10:34:30;26.90;99.90
23452;DHT22;11898;51.130;6.780;2023-07-20T10:36:59;26.90;99.90
23452;DHT22;11898;51.130;6.780;2023-07-20T10:39:31;26.80;99.90
23452;DHT22;11898;51.130;6.780;2023-07-20T10:42:09;26.80;99.90
23452;DHT22;11898;51.130;6.780;2023-07-20T10:44:39;27.00;99.90
23452;DHT22;11898;51.130;6.780;2023-07-20T10:47:12;27.10;99.90
23452;DHT22;11898;51.130;6.780;2023-07-20T10:50:01;27.40;99.90
23452;DHT22;11898;51.130;6.780;2023-07-20T10:52:38;27.50;99.90
23452;DHT22;11898;51.130;6.780;2023-07-20T10:55:14;27.80;99.90
23452;DHT22;11898;51.130;6.780;2023-07-20T10:58:00;28.00;99.90
23452;DHT22;11898;51.130;6.780;2023-07-20T11:00:18;28.50;99.90
23452;DHT22;11898;51.130;6.780;2023-07-20T11:02:49;28.10;99.90
23452;DHT22;11898;51.130;6.780;2023-07-20T11:05:39;28.20;99.90
23452;DHT22;11898;51.130;6.780;2023-07-20T11:08:10;28.30;99.90
23452;DHT22;11898;51.130;6.780;2023-07-20T11:10:39;28.50;99.90
23452;DHT22;11898;51.130;6.780;2023-07-20T11:13:18;28.50;99.90
23452;DHT22;11898;51.130;6.780;2023-07-20T11:18:28;28.60;99.90
23452;DHT22;11898;51.130;6.780;2023-07-20T11:20:58;28.60;99.90
23452;DHT22;11898;51.130;6.780;2023-07-20T11:23:28;28.60;99.90
23452;DHT22;11898;51.130;6.780;2023-07-20T11:25:58;28.60;99.90
23452;DHT22;11898;51.130;6.780;2023-07-20T11:28:32;28.60;99.90
23452;DHT22;11898;51.130;6.780;2023-07-20T11:31:03;28.50;99.90
23452;DHT22;11898;51.130;6.780;2023-07-20T11:33:31;28.50;99.90
23452;DHT22;11898;51.130;6.780;2023-07-20T11:36:00;28.50;99.90
23452;DHT22;11898;51.130;6.780;2023-07-20T11:38:30;28.50;99.90
23452;DHT22;11898;51.130;6.780;2023-07-20T11:40:58;28.50;99.90
23452;DHT22;11898;51.130;6.780;2023-07-20T11:43:27;28.50;99.90
23452;DHT22;11898;51.130;6.780;2023-07-20T11:45:56;28.50;99.90
23452;DHT22;11898;51.130;6.780;2023-07-20T11:48:25;28.40;99.90
23452;DHT22;11898;51.130;6.780;2023-07-20T11:50:53;28.40;99.90
23452;DHT22;11898;51.130;6.780;2023-07-20T11:53:24;28.40;99.90
23452;DHT22;11898;51.130;6.780;2023-07-20T11:55:53;28.30;99.90
23452;DHT22;11898;51.130;6.780;2023-07-20T11:58:22;28.30;99.90
23452;DHT22;11898;51.130;6.780;2023-07-20T12:00:51;28.30;99.90
23452;DHT22;11898;51.130;6.780;2023-07-20T12:03:21;28.10;99.90
23452;DHT22;11898;51.130;6.780;2023-07-20T12:05:50;28.00;99.90
23452;DHT22;11898;51.130;6.780;2023-07-20T12:08:21;28.00;99.90
23452;DHT22;11898;51.130;6.780;2023-07-20T12:10:49;27.90;99.90
23452;DHT22;11898;51.130;6.780;2023-07-20T12:13:20;27.80;99.90
23452;DHT22;11898;51.130;6.780;2023-07-20T12:15:49;27.70;99.90
23452;DHT22;11898;51.130;6.780;2023-07-20T12:18:17;27.70;99.90
23452;DHT22;11898;51.130;6.780;2023-07-20T12:20:46;27.60;99.90
23452;DHT22;11898;51.130;6.780;2023-07-20T12:23:16;27.70;99.90
23452;DHT22;11898;51.130;6.780;2023-07-20T12:25:46;27.90;99.90
23452;DHT22;11898;51.130;6.780;2023-07-20T12:28:17;28.00;99.90
23452;DHT22;11898;51.130;6.780;2023-07-20T12:30:47;28.20;99.90
23452;DHT22;11898;51.130;6.780;2023-07-20T12:33:20;28.20;99.90
23452;DHT22;11898;51.130;6.780;2023-07-20T12:35:50;28.20;99.90
23452;DHT22;11898;51.130;6.780;2023-07-20T12:38:21;28.10;99.90
23452;DHT22;11898;51.130;6.780;2023-07-20T12:40:49;27.90;99.90
23452;DHT22;11898;51.130;6.780;2023-07-20T12:43:18;27.80;99.90
23452;DHT22;11898;51.130;6.780;2023-07-20T12:45:47;27.70;99.90
23452;DHT22;11898;51.130;6.780;2023-07-20T12:48:16;27.60;99.90
23452;DHT22;11898;51.130;6.780;2023-07-20T12:50:44;27.50;99.90
23452;DHT22;11898;51.130;6.780;2023-07-20T12:53:13;27.50;99.90
23452;DHT22;11898;51.130;6.780;2023-07-20T12:55:42;27.40;99.90
23452;DHT22;11898;51.130;6.780;2023-07-20T12:58:12;27.50;99.90
23452;DHT22;11898;51.130;6.780;2023-07-20T13:00:41;27.50;99.90
23452;DHT22;11898;51.130;6.780;2023-07-20T13:03:10;27.60;99.90
23452;DHT22;11898;51.130;6.780;2023-07-20T13:05:41;27.70;99.90
23452;DHT22;11898;51.130;6.780;2023-07-20T13:08:11;27.90;99.90
23452;DHT22;11898;51.130;6.780;2023-07-20T13:10:43;28.10;99.90
23452;DHT22;11898;51.130;6.780;2023-07-20T13:13:12;28.10;99.90
23452;DHT22;11898;51.130;6.780;2023-07-20T13:15:42;28.10;99.90
23452;DHT22;11898;51.130;6.780;2023-07-20T13:18:11;28.00;99.90
23452;DHT22;11898;51.130;6.780;2023-07-20T13:20:40;27.90;99.90
23452;DHT22;11898;51.130;6.780;2023-07-20T13:23:09;28.00;99.90
23452;DHT22;11898;51.130;6.780;2023-07-20T13:25:38;28.00;99.90
23452;DHT22;11898;51.130;6.780;2023-07-20T13:28:07;28.20;99.90
23452;DHT22;11898;51.130;6.780;2023-07-20T13:30:36;28.30;99.90
23452;DHT22;11898;51.130;6.780;2023-07-20T13:33:07;28.30;99.90
23452;DHT22;11898;51.130;6.780;2023-07-20T13:35:37;28.20;99.90
23452;DHT22;11898;51.130;6.780;2023-07-20T13:38:08;28.10;99.90
23452;DHT22;11898;51.130;6.780;2023-07-20T13:40:37;28.00;99.90
23452;DHT22;11898;51.130;6.780;2023-07-20T13:43:06;28.00;99.90
23452;DHT22;11898;51.130;6.780;2023-07-20T13:45:37;27.90;99.90
23452;DHT22;11898;51.130;6.780;2023-07-20T13:48:08;27.90;99.90
23452;DHT22;11898;51.130;6.780;2023-07-20T13:50:37;27.90;99.90
23452;DHT22;11898;51.130;6.780;2023-07-20T13:53:07;27.90;99.90
23452;DHT22;11898;51.130;6.780;2023-07-20T13:55:37;27.90;99.90
23452;DHT22;11898;51.130;6.780;2023-07-20T13:58:09;27.90;99.90
23452;DHT22;11898;51.130;6.780;2023-07-20T14:00:42;27.80;99.90
23452;DHT22;11898;51.130;6.780;2023-07-20T14:03:10;27.80;99.90
23452;DHT22;11898;51.130;6.780;2023-07-20T14:05:41;27.80;99.90
23452;DHT22;11898;51.130;6.780;2023-07-20T14:08:14;27.70;99.90
23452;DHT22;11898;51.130;6.780;2023-07-20T14:10:43;27.60;99.90
23452;DHT22;11898;51.130;6.780;2023-07-20T14:13:13;27.50;99.90
23452;DHT22;11898;51.130;6.780;2023-07-20T14:15:42;27.30;99.90
23452;DHT22;11898;51.130;6.780;2023-07-20T14:18:11;27.20;99.90
23452;DHT22;11898;51.130;6.780;2023-07-20T14:20:39;27.10;99.90
23452;DHT22;11898;51.130;6.780;2023-07-20T14:23:09;27.00;99.90
23452;DHT22;11898;51.130;6.780;2023-07-20T14:25:41;26.90;99.90
23452;DHT22;11898;51.130;6.780;2023-07-20T14:28:10;26.80;99.90
23452;DHT22;11898;51.130;6.780;2023-07-20T14:30:39;26.80;99.90
23452;DHT22;11898;51.130;6.780;2023-07-20T14:33:08;26.70;99.90
23452;DHT22;11898;51.130;6.780;2023-07-20T14:35:37;26.70;99.90
23452;DHT22;11898;51.130;6.780;2023-07-20T14:38:06;26.70;99.90
23452;DHT22;11898;51.130;6.780;2023-07-20T14:40:36;26.70;99.90
23452;DHT22;11898;51.130;6.780;2023-07-20T14:43:04;26.70;99.90
23452;DHT22;11898;51.130;6.780;2023-07-20T14:45:34;26.80;99.90
23452;DHT22;11898;51.130;6.780;2023-07-20T14:48:05;27.00;99.90
23452;DHT22;11898;51.130;6.780;2023-07-20T14:50:35;27.10;99.90
23452;DHT22;11898;51.130;6.780;2023-07-20T14:53:04;27.30;99.90
23452;DHT22;11898;51.130;6.780;2023-07-20T14:55:35;27.40;99.90
23452;DHT22;11898;51.130;6.780;2023-07-20T14:58:04;27.50;99.90
23452;DHT22;11898;51.130;6.780;2023-07-20T15:00:32;27.60;99.90
23452;DHT22;11898;51.130;6.780;2023-07-20T15:03:01;27.60;99.90
23452;DHT22;11898;51.130;6.780;2023-07-20T15:05:30;27.60;99.90
23452;DHT22;11898;51.130;6.780;2023-07-20T15:07:59;27.60;99.90
23452;DHT22;11898;51.130;6.780;2023-07-20T15:10:29;27.70;99.90
23452;DHT22;11898;51.130;6.780;2023-07-20T15:12:57;27.60;99.90
23452;DHT22;11898;51.130;6.780;2023-07-20T15:15:27;27.70;99.90
23452;DHT22;11898;51.130;6.780;2023-07-20T15:17:56;27.60;99.90
23452;DHT22;11898;51.130;6.780;2023-07-20T15:20:24;27.70;99.90
23452;DHT22;11898;51.130;6.780;2023-07-20T15:22:54;27.60;99.90
23452;DHT22;11898;51.130;6.780;2023-07-20T15:25:24;27.70;99.90
23452;DHT22;11898;51.130;6.780;2023-07-20T15:27:53;27.60;99.90
23452;DHT22;11898;51.130;6.780;2023-07-20T15:30:26;27.60;99.90
23452;DHT22;11898;51.130;6.780;2023-07-20T15:32:57;27.60;99.90
23452;DHT22;11898;51.130;6.780;2023-07-20T15:35:27;27.60;99.90
23452;DHT22;11898;51.130;6.780;2023-07-20T15:37:56;27.60;99.90
23452;DHT22;11898;51.130;6.780;2023-07-20T15:40:26;27.70;99.90
23452;DHT22;11898;51.130;6.780;2023-07-20T15:42:55;27.80;99.90
23452;DHT22;11898;51.130;6.780;2023-07-20T15:45:24;27.90;99.90
23452;DHT22;11898;51.130;6.780;2023-07-20T15:47:54;27.90;99.90
23452;DHT22;11898;51.130;6.780;2023-07-20T15:50:23;27.90;99.90
23452;DHT22;11898;51.130;6.780;2023-07-20T15:52:52;27.80;99.90
23452;DHT22;11898;51.130;6.780;2023-07-20T15:55:20;27.80;99.90
23452;DHT22;11898;51.130;6.780;2023-07-20T15:57:49;27.70;99.90
23452;DHT22;11898;51.130;6.780;2023-07-20T16:00:18;27.80;99.90
23452;DHT22;11898;51.130;6.780;2023-07-20T16:02:47;27.90;99.90